createdAt,value
2016-06-27T00:00:25.554Z,21.48
2016-06-27T00:01:25.743Z,21.51
2016-06-27T00:02:25.546Z,21.52
2016-06-27T00:03:25.546Z,21.51
2016-06-27T00:04:25.545Z,21.53
2016-06-27T00:05:25.588Z,21.52
2016-06-27T00:06:25.553Z,21.58
2016-06-27T00:07:25.545Z,21.46
2016-06-27T00:08:25.542Z,21.52
2016-06-27T00:09:25.541Z,21.49
2016-06-27T00:10:25.738Z,21.53
2016-06-27T00:11:25.530Z,21.53
2016-06-27T00:12:25.539Z,21.46
2016-06-27T00:13:25.533Z,21.46
2016-06-27T00:14:25.539Z,21.46
2016-06-27T00:15:25.534Z,21.43
2016-06-27T00:16:25.713Z,21.45
2016-06-27T00:17:25.526Z,21.46
2016-06-27T00:18:25.540Z,21.43
2016-06-27T00:19:25.528Z,21.45
2016-06-27T00:20:25.533Z,21.37
2016-06-27T00:21:25.517Z,21.4
2016-06-27T00:22:25.718Z,21.4
2016-06-27T00:23:25.517Z,21.37
2016-06-27T00:24:25.505Z,21.46
2016-06-27T00:25:25.517Z,21.41
2016-06-27T00:26:25.510Z,21.33
2016-06-27T00:27:25.519Z,21.37
2016-06-27T00:28:25.503Z,21.3
2016-06-27T00:29:25.529Z,21.37
2016-06-27T00:30:25.494Z,21.37
2016-06-27T00:31:25.503Z,21.34
2016-06-27T00:32:25.499Z,21.37
2016-06-27T00:33:25.494Z,21.34
2016-06-27T00:34:25.511Z,21.33
2016-06-27T00:35:25.497Z,21.36
2016-06-27T00:36:25.498Z,21.36
2016-06-27T00:37:25.690Z,21.31
2016-06-27T00:38:25.492Z,21.34
2016-06-27T00:39:25.689Z,21.28
2016-06-27T00:40:25.496Z,21.36
2016-06-27T00:41:25.497Z,21.34
2016-06-27T00:42:25.486Z,21.33
2016-06-27T00:43:25.493Z,21.3
2016-06-27T00:44:25.499Z,21.3
2016-06-27T00:45:25.477Z,21.25
2016-06-27T00:46:25.480Z,21.31
2016-06-27T00:47:25.482Z,21.31
2016-06-27T00:48:25.481Z,21.27
2016-06-27T00:49:25.479Z,21.3
2016-06-27T00:50:25.670Z,21.25
2016-06-27T00:51:25.467Z,21.28
2016-06-27T00:52:25.471Z,21.19
2016-06-27T00:53:25.478Z,21.22
2016-06-27T00:54:25.464Z,21.27
2016-06-27T00:55:25.472Z,21.25
2016-06-27T00:56:25.451Z,21.23
2016-06-27T00:57:25.680Z,21.25
2016-06-27T00:58:25.471Z,21.22
2016-06-27T00:59:25.465Z,21.22
2016-06-27T01:00:25.468Z,21.28
2016-06-27T01:01:25.463Z,21.33
2016-06-27T01:02:25.468Z,21.22
2016-06-27T01:03:25.475Z,21.25
2016-06-27T01:04:25.460Z,21.3
2016-06-27T01:05:25.457Z,21.25
2016-06-27T01:06:25.462Z,21.27
2016-06-27T01:07:25.457Z,21.25
2016-06-27T01:08:25.458Z,21.16
2016-06-27T01:09:25.449Z,21.16
2016-06-27T01:10:25.457Z,21.19
2016-06-27T01:11:25.479Z,21.11
2016-06-27T01:12:25.474Z,21.13
2016-06-27T01:13:25.451Z,21.22
2016-06-27T01:14:25.635Z,21.16
2016-06-27T01:15:25.662Z,21.16
2016-06-27T01:16:25.460Z,21.18
2016-06-27T01:17:25.436Z,21.13
2016-06-27T01:18:25.446Z,21.08
2016-06-27T01:19:25.424Z,21.19
2016-06-27T01:20:25.650Z,21.13
2016-06-27T01:21:25.436Z,21.08
2016-06-27T01:22:25.423Z,21.19
2016-06-27T01:23:25.435Z,21.19
2016-06-27T01:24:25.437Z,21.21
2016-06-27T01:25:25.444Z,21.06
2016-06-27T01:26:25.424Z,21.15
2016-06-27T01:27:25.417Z,21.18
2016-06-27T01:28:25.446Z,21.18
2016-06-27T01:29:25.626Z,21.06
2016-06-27T01:30:25.414Z,21.15
2016-06-27T01:31:25.415Z,21.11
2016-06-27T01:32:25.417Z,21.03
2016-06-27T01:33:25.424Z,21.08
2016-06-27T01:34:25.403Z,21.03
2016-06-27T01:35:25.418Z,21.06
2016-06-27T01:36:25.402Z,21.12
2016-06-27T01:37:25.425Z,21.11
2016-06-27T01:38:25.405Z,21.09
2016-06-27T01:39:25.404Z,21.09
2016-06-27T01:40:25.413Z,21.12
2016-06-27T01:41:25.413Z,21.03
2016-06-27T01:42:25.397Z,21.03
2016-06-27T01:43:25.822Z,21.03
2016-06-27T01:44:25.397Z,21.08
2016-06-27T01:45:25.414Z,21.08
2016-06-27T01:46:25.392Z,21.04
2016-06-27T01:47:25.385Z,21.12
2016-06-27T01:48:25.391Z,21.03
2016-06-27T01:49:25.387Z,21.06
2016-06-27T01:50:25.376Z,21.13
2016-06-27T01:51:25.388Z,21.01
2016-06-27T01:52:25.382Z,21.11
2016-06-27T01:53:25.381Z,21.11
2016-06-27T01:54:25.604Z,21.12
2016-06-27T01:55:25.580Z,21.08
2016-06-27T01:56:25.378Z,21.12
2016-06-27T01:57:25.378Z,21.09
2016-06-27T01:58:25.374Z,21.08
2016-06-27T01:59:25.580Z,21.01
2016-06-27T02:00:25.577Z,21.01
2016-06-27T02:01:25.382Z,20.97
2016-06-27T02:02:25.362Z,21.06
2016-06-27T02:03:25.363Z,21.06
2016-06-27T02:04:25.378Z,21
2016-06-27T02:05:25.364Z,21.03
2016-06-27T02:06:25.349Z,21.04
2016-06-27T02:07:25.344Z,21.04
2016-06-27T02:08:25.357Z,21
2016-06-27T02:09:25.349Z,20.98
2016-06-27T02:10:25.552Z,21.06
2016-06-27T02:11:25.369Z,21
2016-06-27T02:12:25.539Z,20.93
2016-06-27T02:13:25.339Z,20.93
2016-06-27T02:14:25.374Z,20.94
2016-06-27T02:15:25.348Z,20.94
2016-06-27T02:16:25.332Z,20.93
2016-06-27T02:17:25.337Z,20.93
2016-06-27T02:18:25.340Z,20.91
2016-06-27T02:19:25.337Z,20.94
2016-06-27T02:20:25.333Z,21.03
2016-06-27T02:21:25.351Z,20.96
2016-06-27T02:22:25.333Z,20.91
2016-06-27T02:23:25.342Z,20.9
2016-06-27T02:24:25.519Z,20.97
2016-06-27T02:25:25.325Z,20.96
2016-06-27T02:26:25.307Z,20.94
2016-06-27T02:27:25.316Z,20.94
2016-06-27T02:28:25.323Z,20.98
2016-06-27T02:29:25.312Z,20.97
2016-06-27T02:30:25.519Z,20.94
2016-06-27T02:31:25.310Z,20.93
2016-06-27T02:32:25.542Z,20.93
2016-06-27T02:33:25.307Z,20.94
2016-06-27T02:34:25.315Z,20.96
2016-06-27T02:35:25.310Z,20.85
2016-06-27T02:36:25.306Z,20.9
2016-06-27T02:37:25.282Z,20.91
2016-06-27T02:38:25.301Z,20.88
2016-06-27T02:39:25.291Z,20.9
2016-06-27T02:40:25.297Z,20.79
2016-06-27T02:41:25.291Z,20.86
2016-06-27T02:42:25.294Z,20.83
2016-06-27T02:43:25.297Z,20.83
2016-06-27T02:44:25.474Z,20.9
2016-06-27T02:45:25.294Z,20.86
2016-06-27T02:46:25.279Z,20.83
2016-06-27T02:47:25.261Z,20.91
2016-06-27T02:48:25.485Z,20.85
2016-06-27T02:49:25.281Z,20.88
2016-06-27T02:50:25.269Z,20.88
2016-06-27T02:51:25.298Z,20.85
2016-06-27T02:52:25.266Z,20.82
2016-06-27T02:53:25.296Z,20.81
2016-06-27T02:54:25.268Z,20.85
2016-06-27T02:55:25.277Z,20.82
2016-06-27T02:56:25.260Z,20.85
2016-06-27T02:57:25.274Z,20.81
2016-06-27T02:58:25.269Z,20.81
2016-06-27T02:59:25.247Z,20.81
2016-06-27T03:00:25.256Z,20.82
2016-06-27T03:01:25.473Z,20.83
2016-06-27T03:02:25.263Z,20.82
2016-06-27T03:03:25.262Z,20.76
2016-06-27T03:04:25.250Z,20.81
2016-06-27T03:05:25.262Z,20.81
2016-06-27T03:06:25.246Z,20.79
2016-06-27T03:07:25.259Z,20.76
2016-06-27T03:08:25.247Z,20.76
2016-06-27T03:09:25.240Z,20.88
2016-06-27T03:10:25.230Z,20.68
2016-06-27T03:11:25.247Z,20.81
2016-06-27T03:12:25.240Z,20.78
2016-06-27T03:13:25.232Z,20.75
2016-06-27T03:14:25.233Z,20.72
2016-06-27T03:15:25.228Z,20.74
2016-06-27T03:16:25.219Z,20.68
2016-06-27T03:17:25.217Z,20.71
2016-06-27T03:18:25.219Z,20.71
2016-06-27T03:19:25.217Z,20.67
2016-06-27T03:20:25.217Z,20.74
2016-06-27T03:21:25.226Z,20.76
2016-06-27T03:22:25.240Z,20.78
2016-06-27T03:23:25.221Z,20.67
2016-06-27T03:24:25.225Z,20.68
2016-06-27T03:25:25.209Z,20.68
2016-06-27T03:26:25.216Z,20.72
2016-06-27T03:27:25.406Z,20.63
2016-06-27T03:28:25.199Z,20.72
2016-06-27T03:29:25.206Z,20.6
2016-06-27T03:30:25.210Z,20.64
2016-06-27T03:31:25.613Z,20.71
2016-06-27T03:32:25.203Z,20.64
2016-06-27T03:33:25.194Z,20.66
2016-06-27T03:34:25.196Z,20.66
2016-06-27T03:35:25.194Z,20.64
2016-06-27T03:36:25.187Z,20.6
2016-06-27T03:37:25.188Z,20.67
2016-06-27T03:38:25.181Z,20.66
2016-06-27T03:39:25.175Z,20.54
2016-06-27T03:40:25.190Z,20.63
2016-06-27T03:41:25.377Z,20.6
2016-06-27T03:42:25.385Z,20.57
2016-06-27T03:43:25.200Z,20.56
2016-06-27T03:44:25.182Z,20.56
2016-06-27T03:45:25.174Z,20.54
2016-06-27T03:46:25.373Z,20.57
2016-06-27T03:47:25.178Z,20.53
2016-06-27T03:48:25.181Z,20.51
2016-06-27T03:49:25.162Z,20.51
2016-06-27T03:50:25.161Z,20.56
2016-06-27T03:51:25.169Z,20.51
2016-06-27T03:52:25.175Z,20.53
2016-06-27T03:53:25.162Z,20.56
2016-06-27T03:54:25.150Z,20.56
2016-06-27T03:55:25.159Z,20.51
2016-06-27T03:56:25.154Z,20.56
2016-06-27T03:57:25.155Z,20.53
2016-06-27T03:58:25.148Z,20.51
2016-06-27T03:59:25.151Z,20.48
2016-06-27T04:00:25.143Z,20.57
2016-06-27T04:01:25.154Z,20.53
2016-06-27T04:02:25.144Z,20.53
2016-06-27T04:03:25.154Z,20.61
2016-06-27T04:04:25.342Z,20.57
2016-06-27T04:05:25.137Z,20.53
2016-06-27T04:06:25.134Z,20.53
2016-06-27T04:07:25.327Z,20.53
2016-06-27T04:08:25.130Z,20.53
2016-06-27T04:09:25.127Z,20.48
2016-06-27T04:10:25.173Z,20.41
2016-06-27T04:11:25.159Z,20.53
2016-06-27T04:12:25.116Z,20.54
2016-06-27T04:13:25.321Z,20.38
2016-06-27T04:14:25.106Z,20.46
2016-06-27T04:15:25.111Z,20.41
2016-06-27T04:16:25.311Z,20.56
2016-06-27T04:17:25.538Z,20.54
2016-06-27T04:18:25.123Z,20.46
2016-06-27T04:19:25.103Z,20.56
2016-06-27T04:20:25.110Z,20.46
2016-06-27T04:21:25.299Z,20.4
2016-06-27T04:22:25.083Z,20.4
2016-06-27T04:23:25.329Z,20.42
2016-06-27T04:24:25.091Z,20.38
2016-06-27T04:25:25.093Z,20.4
2016-06-27T04:26:25.084Z,20.46
2016-06-27T04:27:25.085Z,20.46
2016-06-27T04:28:25.086Z,20.4
2016-06-27T04:29:25.113Z,20.44
2016-06-27T04:30:25.065Z,20.44
2016-06-27T04:31:25.286Z,20.41
2016-06-27T04:32:25.079Z,20.44
2016-06-27T04:33:25.112Z,20.42
2016-06-27T04:34:25.073Z,20.4
2016-06-27T04:35:25.064Z,20.41
2016-06-27T04:36:25.074Z,20.41
2016-06-27T04:37:25.076Z,20.44
2016-06-27T04:38:25.058Z,20.37
2016-06-27T04:39:25.075Z,20.4
2016-06-27T04:40:25.255Z,20.35
2016-06-27T04:41:25.060Z,20.32
2016-06-27T04:42:25.065Z,20.41
2016-06-27T04:43:25.253Z,20.35
2016-06-27T04:44:25.058Z,20.42
2016-06-27T04:45:25.252Z,20.4
2016-06-27T04:46:25.047Z,20.42
2016-06-27T04:47:25.043Z,20.35
2016-06-27T04:48:25.070Z,20.35
2016-06-27T04:49:25.039Z,20.38
2016-06-27T04:50:25.050Z,20.42
2016-06-27T04:51:25.025Z,20.42
2016-06-27T04:52:25.082Z,20.32
2016-06-27T04:53:25.070Z,20.35
2016-06-27T04:54:25.030Z,20.38
2016-06-27T04:55:25.026Z,20.38
2016-06-27T04:56:25.021Z,20.34
2016-06-27T04:57:25.029Z,20.3
2016-06-27T04:58:25.021Z,20.37
2016-06-27T04:59:25.015Z,20.35
2016-06-27T05:00:25.010Z,20.23
2016-06-27T05:01:25.022Z,20.35
2016-06-27T05:02:25.002Z,20.32
2016-06-27T05:03:25.010Z,20.41
2016-06-27T05:04:25.011Z,20.41
2016-06-27T05:05:24.999Z,20.37
2016-06-27T05:06:25.023Z,20.26
2016-06-27T05:07:24.998Z,20.25
2016-06-27T05:08:25.004Z,20.25
2016-06-27T05:09:24.997Z,20.38
2016-06-27T05:10:24.995Z,20.37
2016-06-27T05:11:24.993Z,20.26
2016-06-27T05:12:25.014Z,20.25
2016-06-27T05:13:24.981Z,20.3
2016-06-27T05:14:24.979Z,20.34
2016-06-27T05:15:24.990Z,20.34
2016-06-27T05:16:24.985Z,20.29
2016-06-27T05:17:24.985Z,20.34
2016-06-27T05:18:24.971Z,20.27
2016-06-27T05:19:25.177Z,20.29
2016-06-27T05:20:24.982Z,20.22
2016-06-27T05:21:25.180Z,20.38
2016-06-27T05:22:24.990Z,20.27
2016-06-27T05:23:24.980Z,20.26
2016-06-27T05:24:24.978Z,20.34
2016-06-27T05:25:25.166Z,20.3
2016-06-27T05:26:24.985Z,20.25
2016-06-27T05:27:24.958Z,20.3
2016-06-27T05:28:28.112Z,20.34
2016-06-27T05:29:25.163Z,20.26
2016-06-27T05:30:24.966Z,20.29
2016-06-27T05:31:24.933Z,20.25
2016-06-27T05:32:24.952Z,20.34
2016-06-27T05:33:24.945Z,20.3
2016-06-27T05:34:24.980Z,20.3
2016-06-27T05:35:24.928Z,20.22
2016-06-27T05:36:24.935Z,20.23
2016-06-27T05:37:25.122Z,20.25
2016-06-27T05:38:24.921Z,20.27
2016-06-27T05:39:24.935Z,20.22
2016-06-27T05:40:25.324Z,20.25
2016-06-27T05:41:24.918Z,20.27
2016-06-27T05:42:24.918Z,20.23
2016-06-27T05:43:24.914Z,20.23
2016-06-27T05:44:24.925Z,20.34
2016-06-27T05:45:24.901Z,20.27
2016-06-27T05:46:24.900Z,20.29
2016-06-27T05:47:24.915Z,20.34
2016-06-27T05:48:24.906Z,20.23
2016-06-27T05:49:24.884Z,20.26
2016-06-27T05:50:25.098Z,20.26
2016-06-27T05:51:24.896Z,20.32
2016-06-27T05:52:24.897Z,20.3
2016-06-27T05:53:24.890Z,20.25
2016-06-27T05:54:24.892Z,20.3
2016-06-27T05:55:25.081Z,20.32
2016-06-27T05:56:24.895Z,20.26
2016-06-27T05:57:24.887Z,20.27
2016-06-27T05:58:24.885Z,20.35
2016-06-27T05:59:25.082Z,20.25
2016-06-27T06:00:25.081Z,20.41
2016-06-27T06:01:25.082Z,20.35
2016-06-27T06:02:24.879Z,20.32
2016-06-27T06:03:24.873Z,20.25
2016-06-27T06:04:24.878Z,20.37
2016-06-27T06:05:24.868Z,20.3
2016-06-27T06:06:24.871Z,20.38
2016-06-27T06:07:25.063Z,20.41
2016-06-27T06:08:24.860Z,20.3
2016-06-27T06:09:24.838Z,20.37
2016-06-27T06:10:24.862Z,20.32
2016-06-27T06:11:24.843Z,20.3
2016-06-27T06:12:24.859Z,20.44
2016-06-27T06:13:24.843Z,20.3
2016-06-27T06:14:24.859Z,20.44
2016-06-27T06:15:24.865Z,20.44
2016-06-27T06:16:24.826Z,20.41
2016-06-27T06:17:24.853Z,20.38
2016-06-27T06:18:24.835Z,20.4
2016-06-27T06:19:24.825Z,20.35
2016-06-27T06:20:24.824Z,20.37
2016-06-27T06:21:24.845Z,20.42
2016-06-27T06:22:24.830Z,20.42
2016-06-27T06:23:24.820Z,20.4
2016-06-27T06:24:25.032Z,20.35
2016-06-27T06:25:25.027Z,20.35
2016-06-27T06:26:24.819Z,20.34
2016-06-27T06:27:24.806Z,20.37
2016-06-27T06:28:24.806Z,20.27
2016-06-27T06:29:25.007Z,20.4
2016-06-27T06:30:24.794Z,20.4
2016-06-27T06:31:24.815Z,20.4
2016-06-27T06:32:24.789Z,20.32
2016-06-27T06:33:24.797Z,20.38
2016-06-27T06:34:24.790Z,20.41
2016-06-27T06:35:24.790Z,20.41
2016-06-27T06:36:24.805Z,20.4
2016-06-27T06:37:24.796Z,20.27
2016-06-27T06:38:24.991Z,20.35
2016-06-27T06:39:24.784Z,20.4
2016-06-27T06:40:24.773Z,20.44
2016-06-27T06:41:24.992Z,20.44
2016-06-27T06:42:24.788Z,20.38
2016-06-27T06:43:24.773Z,20.38
2016-06-27T06:44:24.767Z,20.41
2016-06-27T06:45:24.762Z,20.42
2016-06-27T06:46:24.988Z,20.4
2016-06-27T06:47:24.966Z,20.44
2016-06-27T06:48:24.758Z,20.4
2016-06-27T06:49:24.761Z,20.4
2016-06-27T06:50:24.949Z,20.44
2016-06-27T06:51:24.756Z,20.53
2016-06-27T06:52:24.762Z,20.48
2016-06-27T06:53:24.743Z,20.44
2016-06-27T06:54:24.741Z,20.46
2016-06-27T06:55:24.742Z,20.48
2016-06-27T06:56:24.759Z,20.57
2016-06-27T06:57:24.735Z,20.49
2016-06-27T06:58:24.734Z,20.6
2016-06-27T06:59:24.730Z,20.51
2016-06-27T07:00:24.736Z,20.54
2016-06-27T07:01:24.726Z,20.54
2016-06-27T07:02:24.721Z,20.56
2016-06-27T07:03:24.734Z,20.51
2016-06-27T07:04:24.726Z,20.53
2016-06-27T07:05:24.759Z,20.56
2016-06-27T07:06:24.722Z,20.53
2016-06-27T07:07:24.715Z,20.51
2016-06-27T07:08:24.716Z,20.51
2016-06-27T07:09:24.719Z,20.58
2016-06-27T07:10:24.712Z,20.64
2016-06-27T07:11:24.710Z,20.53
2016-06-27T07:12:24.704Z,20.58
2016-06-27T07:13:24.718Z,20.63
2016-06-27T07:14:24.724Z,20.71
2016-06-27T07:15:24.919Z,20.61
2016-06-27T07:16:24.722Z,20.67
2016-06-27T07:17:24.700Z,20.74
2016-06-27T07:18:24.690Z,20.64
2016-06-27T07:19:24.703Z,20.72
2016-06-27T07:20:24.699Z,20.67
2016-06-27T07:21:24.875Z,20.76
2016-06-27T07:22:24.702Z,20.72
2016-06-27T07:23:24.681Z,20.74
2016-06-27T07:24:24.680Z,20.76
2016-06-27T07:25:24.685Z,20.75
2016-06-27T07:26:24.674Z,20.78
2016-06-27T07:27:24.667Z,20.76
2016-06-27T07:28:24.874Z,20.67
2016-06-27T07:29:24.672Z,20.78
2016-06-27T07:30:24.671Z,20.72
2016-06-27T07:31:24.672Z,20.78
2016-06-27T07:32:24.690Z,20.79
2016-06-27T07:33:24.874Z,20.79
2016-06-27T07:34:24.653Z,20.81
2016-06-27T07:35:24.673Z,20.86
2016-06-27T07:36:24.866Z,20.85
2016-06-27T07:37:24.649Z,20.86
2016-06-27T07:38:24.659Z,20.86
2016-06-27T07:39:24.654Z,20.81
2016-06-27T07:40:24.645Z,20.9
2016-06-27T07:41:24.634Z,20.83
2016-06-27T07:42:24.648Z,20.9
2016-06-27T07:43:24.678Z,20.94
2016-06-27T07:44:24.640Z,20.91
2016-06-27T07:45:24.647Z,20.96
2016-06-27T07:46:24.629Z,20.96
2016-06-27T07:47:24.636Z,20.93
2016-06-27T07:48:24.629Z,20.98
2016-06-27T07:49:24.642Z,20.97
2016-06-27T07:50:24.643Z,20.88
2016-06-27T07:51:24.628Z,20.9
2016-06-27T07:52:24.822Z,20.91
2016-06-27T07:53:24.622Z,20.94
2016-06-27T07:54:24.618Z,20.94
2016-06-27T07:55:24.621Z,21.03
2016-06-27T07:56:24.638Z,21.03
2016-06-27T07:57:24.617Z,20.98
2016-06-27T07:58:24.808Z,20.98
2016-06-27T07:59:24.616Z,21.01
2016-06-27T08:00:24.627Z,21.01
2016-06-27T08:01:24.621Z,20.98
2016-06-27T08:02:24.605Z,21.01
2016-06-27T08:03:24.812Z,21.04
2016-06-27T08:04:24.606Z,21.06
2016-06-27T08:05:24.811Z,21.06
2016-06-27T08:06:24.599Z,21.04
2016-06-27T08:07:24.786Z,21.09
2016-06-27T08:08:24.579Z,21.01
2016-06-27T08:09:24.580Z,21.03
2016-06-27T08:10:24.570Z,20.98
2016-06-27T08:11:24.579Z,21.06
2016-06-27T08:12:24.796Z,21.09
2016-06-27T08:13:24.783Z,21.04
2016-06-27T08:14:24.586Z,21.01
2016-06-27T08:15:24.571Z,21.06
2016-06-27T08:16:24.559Z,21.09
2016-06-27T08:17:24.563Z,21.09
2016-06-27T08:18:24.557Z,21.08
2016-06-27T08:19:24.574Z,21.08
2016-06-27T08:20:24.553Z,21.01
2016-06-27T08:21:24.551Z,21.06
2016-06-27T08:22:24.752Z,21.06
2016-06-27T08:23:24.554Z,21.04
2016-06-27T08:24:24.534Z,21.06
2016-06-27T08:25:24.538Z,21.04
2016-06-27T08:26:24.550Z,21.03
2016-06-27T08:27:24.530Z,21.08
2016-06-27T08:28:24.552Z,21.01
2016-06-27T08:29:24.536Z,21.08
2016-06-27T08:30:24.542Z,21.13
2016-06-27T08:31:24.542Z,21.09
2016-06-27T08:32:24.551Z,21.15
2016-06-27T08:33:24.549Z,21.18
2016-06-27T08:34:24.530Z,21.21
2016-06-27T08:35:24.525Z,21.18
2016-06-27T08:36:24.525Z,21.16
2016-06-27T08:37:24.541Z,21.25
2016-06-27T08:38:24.531Z,21.31
2016-06-27T08:39:24.526Z,21.27
2016-06-27T08:40:24.535Z,21.28
2016-06-27T08:41:24.510Z,21.16
2016-06-27T08:42:24.519Z,21.19
2016-06-27T08:43:24.542Z,21.22
2016-06-27T08:44:24.521Z,21.22
2016-06-27T08:45:24.518Z,21.31
2016-06-27T08:46:24.698Z,21.28
2016-06-27T08:47:24.496Z,21.34
2016-06-27T08:48:24.694Z,21.3
2016-06-27T08:49:24.493Z,21.34
2016-06-27T08:50:24.701Z,21.37
2016-06-27T08:51:24.511Z,21.34
2016-06-27T08:52:24.493Z,21.37
2016-06-27T08:53:24.480Z,21.36
2016-06-27T08:54:24.503Z,21.34
2016-06-27T08:55:24.500Z,21.33
2016-06-27T08:56:24.690Z,21.36
2016-06-27T08:57:24.497Z,21.33
2016-06-27T08:58:24.520Z,21.37
2016-06-27T08:59:24.477Z,21.4
2016-06-27T09:00:24.488Z,21.34
2016-06-27T09:01:24.488Z,21.33
2016-06-27T09:02:24.478Z,21.36
2016-06-27T09:03:24.494Z,21.36
2016-06-27T09:04:24.465Z,21.36
2016-06-27T09:05:24.674Z,21.36
2016-06-27T09:06:24.477Z,21.38
2016-06-27T09:07:24.464Z,21.37
2016-06-27T09:08:24.455Z,21.36
2016-06-27T09:09:24.458Z,21.33
2016-06-27T09:10:24.678Z,21.36
2016-06-27T09:11:24.464Z,21.37
2016-06-27T09:12:24.458Z,21.36
2016-06-27T09:13:24.465Z,21.38
2016-06-27T09:14:24.663Z,21.38
2016-06-27T09:15:24.458Z,21.45
2016-06-27T09:16:24.452Z,21.34
2016-06-27T09:17:24.663Z,21.4
2016-06-27T09:18:24.451Z,21.4
2016-06-27T09:19:24.442Z,21.36
2016-06-27T09:20:24.432Z,21.4
2016-06-27T09:21:24.632Z,21.41
2016-06-27T09:22:24.427Z,21.51
2016-06-27T09:23:24.467Z,21.4
2016-06-27T09:24:24.433Z,21.46
2016-06-27T09:25:24.427Z,21.51
2016-06-27T09:26:24.428Z,21.48
2016-06-27T09:27:24.423Z,21.48
2016-06-27T09:28:24.429Z,21.51
2016-06-27T09:29:24.421Z,21.51
2016-06-27T09:30:24.625Z,21.52
2016-06-27T09:31:24.623Z,21.52
2016-06-27T09:32:24.408Z,21.51
2016-06-27T09:33:24.436Z,21.51
2016-06-27T09:34:24.407Z,21.56
2016-06-27T09:35:24.431Z,21.52
2016-06-27T09:36:24.619Z,21.55
2016-06-27T09:37:24.408Z,21.52
2016-06-27T09:38:24.619Z,21.52
2016-06-27T09:39:24.403Z,21.51
2016-06-27T09:40:24.400Z,21.51
2016-06-27T09:41:24.396Z,21.56
2016-06-27T09:42:24.393Z,21.55
2016-06-27T09:43:24.483Z,21.53
2016-06-27T09:44:24.880Z,21.52
2016-06-27T09:45:24.386Z,21.49
2016-06-27T09:46:24.397Z,21.53
2016-06-27T09:47:24.605Z,21.61
2016-06-27T09:48:24.399Z,21.61
2016-06-27T09:49:24.383Z,21.59
2016-06-27T09:50:24.379Z,21.52
2016-06-27T09:51:24.390Z,21.66
2016-06-27T09:52:24.375Z,21.61
2016-06-27T09:53:24.379Z,21.59
2016-06-27T09:54:24.378Z,21.58
2016-06-27T09:55:24.367Z,21.66
2016-06-27T09:56:24.418Z,21.55
2016-06-27T09:57:24.383Z,21.64
2016-06-27T09:58:24.357Z,21.59
2016-06-27T09:59:24.368Z,21.64
2016-06-27T10:00:24.360Z,21.71
2016-06-27T10:01:24.355Z,21.66
2016-06-27T10:02:24.367Z,21.62
2016-06-27T10:03:24.369Z,21.67
2016-06-27T10:04:24.396Z,21.62
2016-06-27T10:05:24.363Z,21.66
2016-06-27T10:06:24.355Z,21.61
2016-06-27T10:07:24.351Z,21.71
2016-06-27T10:08:24.365Z,21.62
2016-06-27T10:09:24.339Z,21.7
2016-06-27T10:10:24.351Z,21.71
2016-06-27T10:11:24.344Z,21.71
2016-06-27T10:12:24.343Z,21.67
2016-06-27T10:13:24.338Z,21.7
2016-06-27T10:14:24.351Z,21.7
2016-06-27T10:15:24.345Z,21.73
2016-06-27T10:16:24.324Z,21.7
2016-06-27T10:17:24.335Z,21.67
2016-06-27T10:18:24.340Z,21.71
2016-06-27T10:19:24.531Z,21.66
2016-06-27T10:20:24.321Z,21.7
2016-06-27T10:21:24.323Z,21.62
2016-06-27T10:22:24.525Z,21.7
2016-06-27T10:23:24.318Z,21.7
2016-06-27T10:24:24.317Z,21.7
2016-06-27T10:25:24.312Z,21.66
2016-06-27T10:26:24.332Z,21.7
2016-06-27T10:27:24.307Z,21.7
2016-06-27T10:28:24.521Z,21.8
2016-06-27T10:29:24.320Z,21.78
2016-06-27T10:30:24.537Z,21.7
2016-06-27T10:31:24.513Z,21.78
2016-06-27T10:32:24.508Z,21.86
2016-06-27T10:33:24.314Z,21.85
2016-06-27T10:34:24.308Z,21.76
2016-06-27T10:35:24.302Z,21.78
2016-06-27T10:36:24.309Z,21.78
2016-06-27T10:37:24.501Z,21.76
2016-06-27T10:38:24.311Z,21.8
2016-06-27T10:39:24.302Z,21.78
2016-06-27T10:40:24.305Z,21.83
2016-06-27T10:41:24.288Z,21.78
2016-06-27T10:42:24.318Z,21.82
2016-06-27T10:43:24.290Z,21.77
2016-06-27T10:44:24.318Z,21.77
2016-06-27T10:45:24.300Z,21.78
2016-06-27T10:46:24.517Z,21.85
2016-06-27T10:47:24.284Z,21.86
2016-06-27T10:48:24.494Z,21.85
2016-06-27T10:49:24.276Z,21.77
2016-06-27T10:50:24.295Z,21.82
2016-06-27T10:51:24.273Z,21.78
2016-06-27T10:52:24.322Z,21.92
2016-06-27T10:53:24.294Z,21.94
2016-06-27T10:54:24.286Z,21.9
2016-06-27T10:55:24.274Z,21.86
2016-06-27T10:56:24.272Z,21.9
2016-06-27T10:57:24.462Z,21.94
2016-06-27T10:58:24.269Z,21.93
2016-06-27T10:59:24.260Z,21.9
2016-06-27T11:00:24.257Z,21.85
2016-06-27T11:01:24.268Z,21.89
2016-06-27T11:02:24.275Z,21.92
2016-06-27T11:03:24.455Z,21.85
2016-06-27T11:04:24.309Z,21.92
2016-06-27T11:05:24.253Z,21.89
2016-06-27T11:06:24.262Z,21.96
2016-06-27T11:07:24.262Z,21.9
2016-06-27T11:08:24.250Z,21.93
2016-06-27T11:09:24.247Z,21.97
2016-06-27T11:10:24.251Z,21.97
2016-06-27T11:11:24.242Z,21.96
2016-06-27T11:12:24.256Z,22
2016-06-27T11:13:24.243Z,21.96
2016-06-27T11:14:24.249Z,21.99
2016-06-27T11:15:24.230Z,21.9
2016-06-27T11:16:24.242Z,21.96
2016-06-27T11:17:24.431Z,22.08
2016-06-27T11:18:24.234Z,21.96
2016-06-27T11:19:24.226Z,22
2016-06-27T11:20:24.227Z,21.99
2016-06-27T11:21:24.233Z,21.92
2016-06-27T11:22:24.430Z,21.96
2016-06-27T11:23:24.424Z,21.96
2016-06-27T11:24:24.424Z,21.99
2016-06-27T11:25:24.226Z,21.99
2016-06-27T11:26:24.213Z,22.04
2016-06-27T11:27:24.209Z,21.97
2016-06-27T11:28:24.458Z,22.04
2016-06-27T11:29:24.216Z,21.94
2016-06-27T11:30:24.219Z,21.85
2016-06-27T11:31:24.205Z,21.99
2016-06-27T11:32:24.400Z,21.99
2016-06-27T11:33:24.227Z,21.96
2016-06-27T11:34:24.218Z,22.02
2016-06-27T11:35:24.423Z,22.05
2016-06-27T11:36:24.236Z,22.02
2016-06-27T11:37:24.239Z,22.07
2016-06-27T11:38:24.204Z,22.02
2016-06-27T11:39:24.194Z,22.02
2016-06-27T11:40:24.191Z,22.18
2016-06-27T11:41:24.191Z,22.05
2016-06-27T11:42:24.201Z,22.04
2016-06-27T11:43:24.218Z,22.04
2016-06-27T11:44:24.195Z,22.16
2016-06-27T11:45:24.186Z,22.16
2016-06-27T11:46:24.206Z,22.12
2016-06-27T11:47:24.185Z,22.15
2016-06-27T11:48:24.195Z,22.12
2016-06-27T11:49:24.206Z,22.15
2016-06-27T11:50:24.204Z,22.07
2016-06-27T11:51:24.212Z,22.11
2016-06-27T11:52:24.185Z,22.07
2016-06-27T11:53:24.194Z,22.05
2016-06-27T11:54:24.178Z,22.08
2016-06-27T11:55:24.210Z,22.07
2016-06-27T11:56:24.175Z,22.07
2016-06-27T11:57:24.187Z,22.09
2016-06-27T11:58:24.167Z,22.11
2016-06-27T11:59:24.184Z,22.09
2016-06-27T12:00:24.193Z,22.18
2016-06-27T12:01:24.181Z,22.12
2016-06-27T12:02:24.170Z,22.18
2016-06-27T12:03:24.164Z,22.2
2016-06-27T12:04:24.403Z,22.2
2016-06-27T12:05:24.153Z,22.15
2016-06-27T12:06:24.155Z,22.18
2016-06-27T12:07:24.155Z,22.18
2016-06-27T12:08:24.161Z,22.22
2016-06-27T12:09:24.167Z,22.24
2016-06-27T12:10:24.154Z,22.24
2016-06-27T12:11:24.168Z,22.29
2016-06-27T12:12:24.177Z,22.29
2016-06-27T12:13:24.153Z,22.3
2016-06-27T12:14:24.162Z,22.2
2016-06-27T12:15:24.141Z,22.24
2016-06-27T12:16:24.348Z,22.3
2016-06-27T12:17:24.161Z,22.29
2016-06-27T12:18:24.150Z,22.27
2016-06-27T12:19:24.150Z,22.27
2016-06-27T12:20:24.144Z,22.23
2016-06-27T12:21:24.134Z,22.29
2016-06-27T12:22:24.138Z,22.29
2016-06-27T12:23:24.145Z,22.33
2016-06-27T12:24:24.354Z,22.23
2016-06-27T12:25:24.345Z,22.3
2016-06-27T12:26:24.128Z,22.29
2016-06-27T12:27:24.350Z,22.26
2016-06-27T12:28:24.331Z,22.29
2016-06-27T12:29:24.141Z,22.27
2016-06-27T12:30:24.155Z,22.26
2016-06-27T12:31:24.130Z,22.24
2016-06-27T12:32:24.129Z,22.26
2016-06-27T12:33:24.123Z,22.3
2016-06-27T12:34:24.123Z,22.24
2016-06-27T12:35:24.324Z,22.2
2016-06-27T12:36:24.128Z,22.27
2016-06-27T12:37:24.114Z,22.31
2016-06-27T12:38:24.138Z,22.29
2016-06-27T12:39:24.127Z,22.3
2016-06-27T12:40:24.122Z,22.3
2016-06-27T12:41:24.353Z,22.26
2016-06-27T12:42:24.138Z,22.29
2016-06-27T12:43:24.131Z,22.3
2016-06-27T12:44:24.318Z,22.27
2016-06-27T12:45:24.125Z,22.29
2016-06-27T12:46:24.124Z,22.27
2016-06-27T12:47:24.107Z,22.33
2016-06-27T12:48:24.315Z,22.31
2016-06-27T12:49:24.113Z,22.42
2016-06-27T12:50:24.118Z,22.27
2016-06-27T12:51:24.103Z,22.42
2016-06-27T12:52:24.122Z,22.38
2016-06-27T12:53:24.098Z,22.42
2016-06-27T12:54:24.353Z,22.42
2016-06-27T12:55:24.105Z,22.36